sensor_id;sensor_type;location;lat;lon;timestamp;P1;durP1;ratioP1;P2;durP2;ratioP2
62338;SDS011;48368;53.406;6.214;2023-08-06T00:00:06;15.55;;;11.18;;
62338;SDS011;48368;53.406;6.214;2023-08-06T00:02:33;15.57;;;11.65;;
62338;SDS011;48368;53.406;6.214;2023-08-06T00:04:59;17.38;;;11.85;;
62338;SDS011;48368;53.406;6.214;2023-08-06T00:07:24;15.77;;;12.25;;
62338;SDS011;48368;53.406;6.214;2023-08-06T00:09:50;13.88;;;10.95;;
62338;SDS011;48368;53.406;6.214;2023-08-06T00:12:16;15.75;;;11.75;;
62338;SDS011;48368;53.406;6.214;2023-08-06T00:14:49;14.27;;;10.93;;
62338;SDS011;48368;53.406;6.214;2023-08-06T00:17:18;15.00;;;12.05;;
62338;SDS011;48368;53.406;6.214;2023-08-06T00:19:44;14.95;;;10.95;;
62338;SDS011;48368;53.406;6.214;2023-08-06T00:22:10;15.57;;;11.50;;
62338;SDS011;48368;53.406;6.214;2023-08-06T00:24:35;15.60;;;11.82;;
62338;SDS011;48368;53.406;6.214;2023-08-06T00:27:01;14.90;;;10.93;;
62338;SDS011;48368;53.406;6.214;2023-08-06T00:29:27;17.35;;;11.95;;
62338;SDS011;48368;53.406;6.214;2023-08-06T00:31:53;18.52;;;12.10;;
62338;SDS011;48368;53.406;6.214;2023-08-06T00:34:19;16.98;;;12.45;;
62338;SDS011;48368;53.406;6.214;2023-08-06T00:36:44;18.33;;;11.05;;
62338;SDS011;48368;53.406;6.214;2023-08-06T00:39:10;14.15;;;10.98;;
62338;SDS011;48368;53.406;6.214;2023-08-06T00:41:36;12.80;;;10.55;;
62338;SDS011;48368;53.406;6.214;2023-08-06T00:44:02;15.27;;;10.63;;
62338;SDS011;48368;53.406;6.214;2023-08-06T00:46:28;16.70;;;11.63;;
62338;SDS011;48368;53.406;6.214;2023-08-06T00:48:53;16.48;;;11.25;;
62338;SDS011;48368;53.406;6.214;2023-08-06T00:51:20;16.85;;;11.52;;
62338;SDS011;48368;53.406;6.214;2023-08-06T00:53:47;18.10;;;12.13;;
62338;SDS011;48368;53.406;6.214;2023-08-06T00:56:14;14.02;;;10.32;;
62338;SDS011;48368;53.406;6.214;2023-08-06T00:58:40;18.95;;;11.55;;
62338;SDS011;48368;53.406;6.214;2023-08-06T01:01:09;15.60;;;11.45;;
62338;SDS011;48368;53.406;6.214;2023-08-06T01:03:35;17.17;;;11.30;;
62338;SDS011;48368;53.406;6.214;2023-08-06T01:06:01;17.75;;;10.48;;
62338;SDS011;48368;53.406;6.214;2023-08-06T01:13:44;13.98;;;10.38;;
62338;SDS011;48368;53.406;6.214;2023-08-06T01:16:15;16.40;;;10.77;;
62338;SDS011;48368;53.406;6.214;2023-08-06T01:18:43;12.02;;;9.18;;
62338;SDS011;48368;53.406;6.214;2023-08-06T01:21:14;16.10;;;9.63;;
62338;SDS011;48368;53.406;6.214;2023-08-06T01:23:41;12.00;;;9.50;;
62338;SDS011;48368;53.406;6.214;2023-08-06T01:31:27;13.80;;;9.55;;
62338;SDS011;48368;53.406;6.214;2023-08-06T01:34:02;14.23;;;9.40;;
62338;SDS011;48368;53.406;6.214;2023-08-06T01:36:31;16.17;;;10.13;;
62338;SDS011;48368;53.406;6.214;2023-08-06T01:38:57;11.85;;;9.55;;
62338;SDS011;48368;53.406;6.214;2023-08-06T01:41:23;11.93;;;8.70;;
62338;SDS011;48368;53.406;6.214;2023-08-06T01:43:48;17.20;;;10.02;;
62338;SDS011;48368;53.406;6.214;2023-08-06T01:46:14;11.18;;;9.10;;
62338;SDS011;48368;53.406;6.214;2023-08-06T01:48:40;12.07;;;9.00;;
62338;SDS011;48368;53.406;6.214;2023-08-06T01:51:06;13.13;;;9.07;;
62338;SDS011;48368;53.406;6.214;2023-08-06T01:53:32;11.52;;;8.70;;
62338;SDS011;48368;53.406;6.214;2023-08-06T01:55:58;15.60;;;8.70;;
62338;SDS011;48368;53.406;6.214;2023-08-06T01:58:23;12.65;;;8.70;;
62338;SDS011;48368;53.406;6.214;2023-08-06T02:00:49;13.10;;;9.18;;
62338;SDS011;48368;53.406;6.214;2023-08-06T02:03:15;11.50;;;9.18;;
62338;SDS011;48368;53.406;6.214;2023-08-06T02:05:40;13.93;;;9.55;;
62338;SDS011;48368;53.406;6.214;2023-08-06T02:08:06;14.65;;;9.50;;
62338;SDS011;48368;53.406;6.214;2023-08-06T02:10:32;14.88;;;9.77;;
62338;SDS011;48368;53.406;6.214;2023-08-06T02:13:01;10.60;;;8.85;;
62338;SDS011;48368;53.406;6.214;2023-08-06T02:15:26;12.13;;;8.70;;
62338;SDS011;48368;53.406;6.214;2023-08-06T02:17:52;12.73;;;9.77;;
62338;SDS011;48368;53.406;6.214;2023-08-06T02:20:18;13.40;;;8.90;;
62338;SDS011;48368;53.406;6.214;2023-08-06T02:22:43;11.50;;;9.10;;
62338;SDS011;48368;53.406;6.214;2023-08-06T02:25:09;13.75;;;9.40;;
62338;SDS011;48368;53.406;6.214;2023-08-06T02:27:35;10.80;;;8.80;;
62338;SDS011;48368;53.406;6.214;2023-08-06T02:30:02;13.65;;;9.10;;
62338;SDS011;48368;53.406;6.214;2023-08-06T02:32:29;13.88;;;9.07;;
62338;SDS011;48368;53.406;6.214;2023-08-06T02:34:56;13.35;;;9.70;;
62338;SDS011;48368;53.406;6.214;2023-08-06T02:37:22;16.45;;;9.38;;
62338;SDS011;48368;53.406;6.214;2023-08-06T02:39:48;12.10;;;9.02;;
62338;SDS011;48368;53.406;6.214;2023-08-06T02:42:13;12.18;;;9.07;;
62338;SDS011;48368;53.406;6.214;2023-08-06T02:44:39;12.00;;;9.02;;
62338;SDS011;48368;53.406;6.214;2023-08-06T02:47:04;12.93;;;9.80;;
62338;SDS011;48368;53.406;6.214;2023-08-06T02:49:30;13.88;;;9.48;;
62338;SDS011;48368;53.406;6.214;2023-08-06T02:51:56;14.57;;;9.93;;
62338;SDS011;48368;53.406;6.214;2023-08-06T02:54:22;14.25;;;9.88;;
62338;SDS011;48368;53.406;6.214;2023-08-06T02:56:47;13.82;;;9.68;;
62338;SDS011;48368;53.406;6.214;2023-08-06T02:59:13;10.40;;;8.32;;
62338;SDS011;48368;53.406;6.214;2023-08-06T03:01:39;13.38;;;10.30;;
62338;SDS011;48368;53.406;6.214;2023-08-06T03:04:05;12.25;;;9.50;;
62338;SDS011;48368;53.406;6.214;2023-08-06T03:06:30;15.50;;;10.10;;
62338;SDS011;48368;53.406;6.214;2023-08-06T03:08:56;13.23;;;9.48;;
62338;SDS011;48368;53.406;6.214;2023-08-06T03:11:22;18.77;;;10.55;;
62338;SDS011;48368;53.406;6.214;2023-08-06T03:13:48;12.77;;;9.48;;
62338;SDS011;48368;53.406;6.214;2023-08-06T03:16:13;17.45;;;11.05;;
62338;SDS011;48368;53.406;6.214;2023-08-06T03:18:42;12.93;;;10.38;;
62338;SDS011;48368;53.406;6.214;2023-08-06T03:21:07;13.90;;;10.55;;
62338;SDS011;48368;53.406;6.214;2023-08-06T03:23:33;14.30;;;10.52;;
62338;SDS011;48368;53.406;6.214;2023-08-06T03:26:02;16.77;;;10.20;;
62338;SDS011;48368;53.406;6.214;2023-08-06T03:28:28;13.38;;;10.05;;
62338;SDS011;48368;53.406;6.214;2023-08-06T03:31:03;14.50;;;10.73;;
62338;SDS011;48368;53.406;6.214;2023-08-06T03:33:29;13.38;;;10.48;;
62338;SDS011;48368;53.406;6.214;2023-08-06T03:35:54;17.33;;;10.82;;
62338;SDS011;48368;53.406;6.214;2023-08-06T03:38:20;14.25;;;11.23;;
62338;SDS011;48368;53.406;6.214;2023-08-06T03:40:47;15.52;;;11.07;;
62338;SDS011;48368;53.406;6.214;2023-08-06T03:43:13;13.15;;;10.25;;
62338;SDS011;48368;53.406;6.214;2023-08-06T03:45:39;14.23;;;11.45;;
62338;SDS011;48368;53.406;6.214;2023-08-06T03:48:05;14.50;;;11.45;;
62338;SDS011;48368;53.406;6.214;2023-08-06T03:50:31;15.07;;;10.93;;
62338;SDS011;48368;53.406;6.214;2023-08-06T03:52:57;15.85;;;11.40;;
62338;SDS011;48368;53.406;6.214;2023-08-06T03:55:22;14.93;;;10.43;;
62338;SDS011;48368;53.406;6.214;2023-08-06T03:57:48;17.13;;;12.10;;
62338;SDS011;48368;53.406;6.214;2023-08-06T04:00:13;12.88;;;11.05;;
62338;SDS011;48368;53.406;6.214;2023-08-06T04:02:39;15.43;;;11.25;;
62338;SDS011;48368;53.406;6.214;2023-08-06T04:05:05;14.65;;;10.93;;
62338;SDS011;48368;53.406;6.214;2023-08-06T04:07:30;13.70;;;10.77;;
62338;SDS011;48368;53.406;6.214;2023-08-06T04:10:03;16.50;;;11.15;;
62338;SDS011;48368;53.406;6.214;2023-08-06T04:12:29;13.65;;;10.60;;
62338;SDS011;48368;53.406;6.214;2023-08-06T04:14:57;14.38;;;10.15;;
62338;SDS011;48368;53.406;6.214;2023-08-06T04:17:24;12.70;;;10.55;;
62338;SDS011;48368;53.406;6.214;2023-08-06T04:19:50;14.77;;;10.80;;
62338;SDS011;48368;53.406;6.214;2023-08-06T04:22:17;13.85;;;11.02;;
62338;SDS011;48368;53.406;6.214;2023-08-06T04:24:43;14.88;;;10.77;;
62338;SDS011;48368;53.406;6.214;2023-08-06T04:27:09;13.27;;;10.30;;
62338;SDS011;48368;53.406;6.214;2023-08-06T04:29:36;15.40;;;10.68;;
62338;SDS011;48368;53.406;6.214;2023-08-06T04:32:03;14.27;;;10.43;;
62338;SDS011;48368;53.406;6.214;2023-08-06T04:34:30;13.23;;;10.73;;
62338;SDS011;48368;53.406;6.214;2023-08-06T04:36:56;14.02;;;10.43;;
62338;SDS011;48368;53.406;6.214;2023-08-06T04:39:21;15.02;;;10.95;;
62338;SDS011;48368;53.406;6.214;2023-08-06T04:41:47;17.13;;;11.35;;
62338;SDS011;48368;53.406;6.214;2023-08-06T04:44:13;17.02;;;11.23;;
62338;SDS011;48368;53.406;6.214;2023-08-06T04:46:38;13.32;;;10.52;;
62338;SDS011;48368;53.406;6.214;2023-08-06T04:49:04;13.00;;;10.63;;
62338;SDS011;48368;53.406;6.214;2023-08-06T04:51:35;15.15;;;11.10;;
62338;SDS011;48368;53.406;6.214;2023-08-06T04:54:01;14.10;;;10.18;;
62338;SDS011;48368;53.406;6.214;2023-08-06T04:56:26;14.27;;;10.00;;
62338;SDS011;48368;53.406;6.214;2023-08-06T04:58:52;12.45;;;9.98;;
62338;SDS011;48368;53.406;6.214;2023-08-06T05:01:18;15.07;;;10.75;;
62338;SDS011;48368;53.406;6.214;2023-08-06T05:03:44;17.95;;;11.20;;
62338;SDS011;48368;53.406;6.214;2023-08-06T05:06:09;15.38;;;10.85;;
62338;SDS011;48368;53.406;6.214;2023-08-06T05:08:35;16.13;;;10.90;;
62338;SDS011;48368;53.406;6.214;2023-08-06T05:11:01;16.40;;;9.77;;
62338;SDS011;48368;53.406;6.214;2023-08-06T05:13:27;14.13;;;10.55;;
62338;SDS011;48368;53.406;6.214;2023-08-06T05:15:56;13.88;;;10.07;;
62338;SDS011;48368;53.406;6.214;2023-08-06T05:18:21;15.02;;;10.30;;
62338;SDS011;48368;53.406;6.214;2023-08-06T05:20:47;14.93;;;9.93;;
62338;SDS011;48368;53.406;6.214;2023-08-06T05:23:15;11.80;;;9.95;;
62338;SDS011;48368;53.406;6.214;2023-08-06T05:25:41;13.98;;;10.48;;
62338;SDS011;48368;53.406;6.214;2023-08-06T05:28:10;14.15;;;9.73;;
62338;SDS011;48368;53.406;6.214;2023-08-06T05:30:38;15.75;;;10.15;;
62338;SDS011;48368;53.406;6.214;2023-08-06T05:33:05;13.13;;;9.52;;
62338;SDS011;48368;53.406;6.214;2023-08-06T05:35:30;13.43;;;9.68;;
62338;SDS011;48368;53.406;6.214;2023-08-06T05:37:56;14.15;;;9.57;;
62338;SDS011;48368;53.406;6.214;2023-08-06T05:40:21;11.45;;;9.23;;
62338;SDS011;48368;53.406;6.214;2023-08-06T05:42:47;11.57;;;8.13;;
62338;SDS011;48368;53.406;6.214;2023-08-06T05:45:13;10.43;;;8.35;;
62338;SDS011;48368;53.406;6.214;2023-08-06T05:47:38;10.13;;;7.72;;
62338;SDS011;48368;53.406;6.214;2023-08-06T05:50:04;12.48;;;7.97;;
62338;SDS011;48368;53.406;6.214;2023-08-06T05:52:30;12.07;;;7.53;;
62338;SDS011;48368;53.406;6.214;2023-08-06T05:54:56;10.07;;;7.68;;
62338;SDS011;48368;53.406;6.214;2023-08-06T05:57:22;11.30;;;7.75;;
62338;SDS011;48368;53.406;6.214;2023-08-06T05:59:47;12.07;;;7.88;;
62338;SDS011;48368;53.406;6.214;2023-08-06T06:02:22;10.80;;;6.57;;
62338;SDS011;48368;53.406;6.214;2023-08-06T06:04:48;9.43;;;6.78;;
62338;SDS011;48368;53.406;6.214;2023-08-06T06:07:13;7.60;;;6.57;;
62338;SDS011;48368;53.406;6.214;2023-08-06T06:09:39;9.23;;;6.93;;
62338;SDS011;48368;53.406;6.214;2023-08-06T06:12:05;10.32;;;6.57;;
62338;SDS011;48368;53.406;6.214;2023-08-06T06:14:31;7.65;;;6.30;;
62338;SDS011;48368;53.406;6.214;2023-08-06T06:16:59;8.70;;;6.38;;
62338;SDS011;48368;53.406;6.214;2023-08-06T06:19:25;7.57;;;6.47;;
62338;SDS011;48368;53.406;6.214;2023-08-06T06:22:00;8.65;;;5.93;;
62338;SDS011;48368;53.406;6.214;2023-08-06T06:24:26;8.10;;;5.90;;
62338;SDS011;48368;53.406;6.214;2023-08-06T06:26:51;8.57;;;5.60;;
62338;SDS011;48368;53.406;6.214;2023-08-06T06:29:17;8.43;;;5.72;;
62338;SDS011;48368;53.406;6.214;2023-08-06T06:31:43;7.57;;;5.95;;
62338;SDS011;48368;53.406;6.214;2023-08-06T06:34:08;9.32;;;6.00;;
62338;SDS011;48368;53.406;6.214;2023-08-06T06:36:37;7.25;;;5.93;;
62338;SDS011;48368;53.406;6.214;2023-08-06T06:39:02;10.48;;;6.53;;
62338;SDS011;48368;53.406;6.214;2023-08-06T06:41:28;9.50;;;6.05;;
62338;SDS011;48368;53.406;6.214;2023-08-06T06:43:56;10.00;;;5.82;;
62338;SDS011;48368;53.406;6.214;2023-08-06T06:46:22;10.23;;;6.50;;
62338;SDS011;48368;53.406;6.214;2023-08-06T06:48:47;8.95;;;7.05;;
62338;SDS011;48368;53.406;6.214;2023-08-06T06:51:13;11.60;;;6.75;;
62338;SDS011;48368;53.406;6.214;2023-08-06T06:53:39;8.50;;;6.65;;
62338;SDS011;48368;53.406;6.214;2023-08-06T06:56:04;9.02;;;6.57;;
62338;SDS011;48368;53.406;6.214;2023-08-06T06:58:30;11.70;;;7.20;;
62338;SDS011;48368;53.406;6.214;2023-08-06T07:01:18;9.57;;;6.60;;
62338;SDS011;48368;53.406;6.214;2023-08-06T07:03:43;8.63;;;7.18;;
62338;SDS011;48368;53.406;6.214;2023-08-06T07:06:08;12.23;;;7.22;;
62338;SDS011;48368;53.406;6.214;2023-08-06T07:08:34;9.70;;;6.97;;
62338;SDS011;48368;53.406;6.214;2023-08-06T07:11:01;9.18;;;6.72;;
62338;SDS011;48368;53.406;6.214;2023-08-06T07:13:33;8.88;;;6.15;;
62338;SDS011;48368;53.406;6.214;2023-08-06T07:16:00;7.40;;;6.20;;
62338;SDS011;48368;53.406;6.214;2023-08-06T07:18:25;9.68;;;5.50;;
62338;SDS011;48368;53.406;6.214;2023-08-06T07:20:51;7.95;;;4.68;;
62338;SDS011;48368;53.406;6.214;2023-08-06T07:23:19;6.38;;;4.70;;
62338;SDS011;48368;53.406;6.214;2023-08-06T07:25:47;7.18;;;4.32;;
62338;SDS011;48368;53.406;6.214;2023-08-06T07:28:16;5.50;;;3.55;;
62338;SDS011;48368;53.406;6.214;2023-08-06T07:30:48;6.90;;;3.40;;
62338;SDS011;48368;53.406;6.214;2023-08-06T07:33:13;5.55;;;3.67;;
62338;SDS011;48368;53.406;6.214;2023-08-06T07:35:39;4.90;;;2.47;;
62338;SDS011;48368;53.406;6.214;2023-08-06T07:38:05;4.25;;;2.65;;
62338;SDS011;48368;53.406;6.214;2023-08-06T07:40:31;3.88;;;3.00;;
62338;SDS011;48368;53.406;6.214;2023-08-06T07:42:57;6.07;;;3.05;;
62338;SDS011;48368;53.406;6.214;2023-08-06T07:45:22;7.75;;;4.00;;
62338;SDS011;48368;53.406;6.214;2023-08-06T07:47:52;6.22;;;3.40;;
62338;SDS011;48368;53.406;6.214;2023-08-06T07:50:17;6.50;;;3.78;;
62338;SDS011;48368;53.406;6.214;2023-08-06T07:52:50;6.15;;;3.95;;
62338;SDS011;48368;53.406;6.214;2023-08-06T07:55:18;5.22;;;2.80;;
62338;SDS011;48368;53.406;6.214;2023-08-06T07:57:47;4.25;;;2.40;;
62338;SDS011;48368;53.406;6.214;2023-08-06T08:00:13;3.75;;;2.10;;
62338;SDS011;48368;53.406;6.214;2023-08-06T08:02:41;3.95;;;2.22;;
62338;SDS011;48368;53.406;6.214;2023-08-06T08:05:06;4.50;;;2.53;;
62338;SDS011;48368;53.406;6.214;2023-08-06T08:07:33;4.15;;;2.65;;
62338;SDS011;48368;53.406;6.214;2023-08-06T08:09:59;5.13;;;2.58;;
62338;SDS011;48368;53.406;6.214;2023-08-06T08:12:24;3.72;;;2.22;;
62338;SDS011;48368;53.406;6.214;2023-08-06T08:14:50;4.78;;;2.30;;
62338;SDS011;48368;53.406;6.214;2023-08-06T08:17:16;4.25;;;2.10;;
62338;SDS011;48368;53.406;6.214;2023-08-06T08:19:44;2.95;;;2.17;;
62338;SDS011;48368;53.406;6.214;2023-08-06T08:22:10;3.33;;;2.30;;
62338;SDS011;48368;53.406;6.214;2023-08-06T08:24:36;4.13;;;2.50;;
62338;SDS011;48368;53.406;6.214;2023-08-06T08:27:01;5.40;;;2.40;;
62338;SDS011;48368;53.406;6.214;2023-08-06T08:29:27;4.20;;;1.85;;
62338;SDS011;48368;53.406;6.214;2023-08-06T08:31:53;4.32;;;2.53;;
62338;SDS011;48368;53.406;6.214;2023-08-06T08:34:18;4.68;;;2.30;;
62338;SDS011;48368;53.406;6.214;2023-08-06T08:36:44;4.40;;;2.42;;
62338;SDS011;48368;53.406;6.214;2023-08-06T08:39:12;4.22;;;2.00;;
62338;SDS011;48368;53.406;6.214;2023-08-06T08:41:38;6.43;;;2.35;;
62338;SDS011;48368;53.406;6.214;2023-08-06T08:44:08;4.15;;;2.30;;
62338;SDS011;48368;53.406;6.214;2023-08-06T08:46:35;3.65;;;2.08;;
62338;SDS011;48368;53.406;6.214;2023-08-06T08:49:03;4.30;;;2.08;;
62338;SDS011;48368;53.406;6.214;2023-08-06T08:51:29;3.75;;;2.40;;
62338;SDS011;48368;53.406;6.214;2023-08-06T08:53:56;3.83;;;1.85;;
62338;SDS011;48368;53.406;6.214;2023-08-06T08:56:22;3.22;;;2.08;;
62338;SDS011;48368;53.406;6.214;2023-08-06T08:58:48;3.53;;;2.10;;
62338;SDS011;48368;53.406;6.214;2023-08-06T09:01:15;5.07;;;1.83;;
62338;SDS011;48368;53.406;6.214;2023-08-06T09:03:43;6.55;;;1.88;;
62338;SDS011;48368;53.406;6.214;2023-08-06T09:06:10;5.93;;;1.85;;
62338;SDS011;48368;53.406;6.214;2023-08-06T09:08:39;3.90;;;2.05;;
62338;SDS011;48368;53.406;6.214;2023-08-06T09:11:12;3.40;;;2.33;;
62338;SDS011;48368;53.406;6.214;2023-08-06T09:13:38;3.13;;;2.03;;
62338;SDS011;48368;53.406;6.214;2023-08-06T09:16:04;4.43;;;2.22;;
62338;SDS011;48368;53.406;6.214;2023-08-06T09:18:30;3.40;;;2.00;;
62338;SDS011;48368;53.406;6.214;2023-08-06T09:20:56;3.45;;;1.90;;
62338;SDS011;48368;53.406;6.214;2023-08-06T09:23:29;5.82;;;2.40;;
62338;SDS011;48368;53.406;6.214;2023-08-06T09:25:57;5.28;;;3.17;;
62338;SDS011;48368;53.406;6.214;2023-08-06T09:28:22;3.90;;;1.90;;
62338;SDS011;48368;53.406;6.214;2023-08-06T09:30:49;5.97;;;2.10;;
62338;SDS011;48368;53.406;6.214;2023-08-06T09:33:20;3.97;;;2.13;;
62338;SDS011;48368;53.406;6.214;2023-08-06T09:35:48;4.03;;;2.40;;
62338;SDS011;48368;53.406;6.214;2023-08-06T09:38:13;5.53;;;1.90;;
62338;SDS011;48368;53.406;6.214;2023-08-06T09:40:39;4.80;;;2.58;;
62338;SDS011;48368;53.406;6.214;2023-08-06T09:43:05;4.53;;;2.55;;
62338;SDS011;48368;53.406;6.214;2023-08-06T09:45:35;4.47;;;2.63;;
62338;SDS011;48368;53.406;6.214;2023-08-06T09:48:03;8.35;;;2.80;;
62338;SDS011;48368;53.406;6.214;2023-08-06T09:50:30;7.85;;;2.42;;
62338;SDS011;48368;53.406;6.214;2023-08-06T09:52:57;4.82;;;2.20;;
62338;SDS011;48368;53.406;6.214;2023-08-06T09:55:24;4.88;;;2.58;;
62338;SDS011;48368;53.406;6.214;2023-08-06T09:57:51;5.57;;;2.47;;
62338;SDS011;48368;53.406;6.214;2023-08-06T10:00:17;4.35;;;2.30;;
62338;SDS011;48368;53.406;6.214;2023-08-06T10:02:43;3.65;;;2.22;;
62338;SDS011;48368;53.406;6.214;2023-08-06T10:05:11;4.30;;;2.28;;
62338;SDS011;48368;53.406;6.214;2023-08-06T10:07:37;3.17;;;2.25;;
62338;SDS011;48368;53.406;6.214;2023-08-06T10:10:06;6.75;;;2.50;;
62338;SDS011;48368;53.406;6.214;2023-08-06T10:13:05;4.25;;;2.45;;
62338;SDS011;48368;53.406;6.214;2023-08-06T10:15:26;4.00;;;2.30;;
62338;SDS011;48368;53.406;6.214;2023-08-06T10:17:57;4.53;;;2.17;;
62338;SDS011;48368;53.406;6.214;2023-08-06T10:20:24;4.82;;;2.22;;
62338;SDS011;48368;53.406;6.214;2023-08-06T10:23:03;3.70;;;2.10;;
62338;SDS011;48368;53.406;6.214;2023-08-06T10:25:31;4.05;;;2.13;;
62338;SDS011;48368;53.406;6.214;2023-08-06T10:28:10;4.15;;;2.25;;
62338;SDS011;48368;53.406;6.214;2023-08-06T10:30:49;3.97;;;1.90;;
62338;SDS011;48368;53.406;6.214;2023-08-06T10:33:15;4.43;;;1.90;;
62338;SDS011;48368;53.406;6.214;2023-08-06T10:35:48;3.95;;;1.90;;
62338;SDS011;48368;53.406;6.214;2023-08-06T10:38:16;3.22;;;2.08;;
62338;SDS011;48368;53.406;6.214;2023-08-06T10:43:32;2.83;;;1.75;;
62338;SDS011;48368;53.406;6.214;2023-08-06T10:46:03;4.28;;;2.08;;
62338;SDS011;48368;53.406;6.214;2023-08-06T10:48:35;3.95;;;2.10;;
62338;SDS011;48368;53.406;6.214;2023-08-06T10:51:01;3.65;;;2.17;;
62338;SDS011;48368;53.406;6.214;2023-08-06T10:53:28;7.20;;;2.25;;
62338;SDS011;48368;53.406;6.214;2023-08-06T10:55:53;3.47;;;2.00;;
62338;SDS011;48368;53.406;6.214;2023-08-06T10:58:19;5.43;;;2.10;;
62338;SDS011;48368;53.406;6.214;2023-08-06T11:00:45;4.60;;;2.20;;
62338;SDS011;48368;53.406;6.214;2023-08-06T11:03:11;4.25;;;2.10;;
62338;SDS011;48368;53.406;6.214;2023-08-06T11:05:37;4.75;;;1.90;;
62338;SDS011;48368;53.406;6.214;2023-08-06T11:08:02;3.78;;;2.00;;
62338;SDS011;48368;53.406;6.214;2023-08-06T11:10:28;3.97;;;1.95;;
62338;SDS011;48368;53.406;6.214;2023-08-06T11:13:00;4.15;;;2.25;;
62338;SDS011;48368;53.406;6.214;2023-08-06T11:15:26;5.22;;;2.50;;
62338;SDS011;48368;53.406;6.214;2023-08-06T11:17:52;6.18;;;2.45;;
62338;SDS011;48368;53.406;6.214;2023-08-06T11:20:17;3.35;;;2.30;;
62338;SDS011;48368;53.406;6.214;2023-08-06T11:22:47;4.50;;;2.00;;
62338;SDS011;48368;53.406;6.214;2023-08-06T11:25:12;4.07;;;2.30;;
62338;SDS011;48368;53.406;6.214;2023-08-06T11:27:38;3.28;;;1.95;;
62338;SDS011;48368;53.406;6.214;2023-08-06T11:30:04;5.25;;;2.30;;
62338;SDS011;48368;53.406;6.214;2023-08-06T11:32:33;5.25;;;2.22;;
62338;SDS011;48368;53.406;6.214;2023-08-06T11:35:12;3.92;;;2.10;;
62338;SDS011;48368;53.406;6.214;2023-08-06T11:37:44;3.55;;;2.00;;
62338;SDS011;48368;53.406;6.214;2023-08-06T11:40:11;3.50;;;2.30;;
62338;SDS011;48368;53.406;6.214;2023-08-06T11:42:39;5.07;;;2.33;;
62338;SDS011;48368;53.406;6.214;2023-08-06T11:45:04;4.53;;;2.38;;
62338;SDS011;48368;53.406;6.214;2023-08-06T11:47:30;3.85;;;2.00;;
62338;SDS011;48368;53.406;6.214;2023-08-06T11:49:56;3.22;;;2.47;;
62338;SDS011;48368;53.406;6.214;2023-08-06T11:52:23;3.10;;;1.90;;
62338;SDS011;48368;53.406;6.214;2023-08-06T11:57:37;3.97;;;1.98;;
62338;SDS011;48368;53.406;6.214;2023-08-06T12:00:11;3.72;;;1.95;;
62338;SDS011;48368;53.406;6.214;2023-08-06T12:02:39;3.63;;;1.95;;
62338;SDS011;48368;53.406;6.214;2023-08-06T12:07:36;3.60;;;1.77;;
62338;SDS011;48368;53.406;6.214;2023-08-06T12:10:04;3.55;;;2.10;;
62338;SDS011;48368;53.406;6.214;2023-08-06T12:12:30;4.28;;;2.03;;
62338;SDS011;48368;53.406;6.214;2023-08-06T12:14:57;3.95;;;2.08;;
62338;SDS011;48368;53.406;6.214;2023-08-06T12:17:24;3.05;;;2.10;;
62338;SDS011;48368;53.406;6.214;2023-08-06T12:19:49;5.15;;;2.15;;
62338;SDS011;48368;53.406;6.214;2023-08-06T12:22:15;5.05;;;2.17;;
62338;SDS011;48368;53.406;6.214;2023-08-06T12:24:42;3.72;;;2.05;;
62338;SDS011;48368;53.406;6.214;2023-08-06T12:27:08;3.20;;;1.98;;
62338;SDS011;48368;53.406;6.214;2023-08-06T12:29:35;3.03;;;1.80;;
62338;SDS011;48368;53.406;6.214;2023-08-06T12:32:01;3.80;;;2.20;;
62338;SDS011;48368;53.406;6.214;2023-08-06T12:34:27;2.63;;;1.90;;
62338;SDS011;48368;53.406;6.214;2023-08-06T12:36:52;4.63;;;2.03;;
62338;SDS011;48368;53.406;6.214;2023-08-06T12:39:18;3.42;;;1.85;;
62338;SDS011;48368;53.406;6.214;2023-08-06T12:41:44;4.85;;;1.80;;
62338;SDS011;48368;53.406;6.214;2023-08-06T12:44:11;2.65;;;1.58;;
62338;SDS011;48368;53.406;6.214;2023-08-06T12:46:40;3.13;;;1.80;;
62338;SDS011;48368;53.406;6.214;2023-08-06T12:49:05;3.88;;;1.65;;
62338;SDS011;48368;53.406;6.214;2023-08-06T12:51:31;4.07;;;1.55;;
62338;SDS011;48368;53.406;6.214;2023-08-06T12:53:59;3.33;;;1.90;;
62338;SDS011;48368;53.406;6.214;2023-08-06T12:56:24;3.13;;;1.58;;
62338;SDS011;48368;53.406;6.214;2023-08-06T12:58:50;4.05;;;1.80;;
62338;SDS011;48368;53.406;6.214;2023-08-06T13:01:16;2.72;;;1.58;;
62338;SDS011;48368;53.406;6.214;2023-08-06T13:03:41;2.60;;;1.70;;
62338;SDS011;48368;53.406;6.214;2023-08-06T13:06:07;2.15;;;1.63;;
62338;SDS011;48368;53.406;6.214;2023-08-06T13:08:34;3.58;;;1.58;;
62338;SDS011;48368;53.406;6.214;2023-08-06T13:11:01;3.88;;;1.75;;
62338;SDS011;48368;53.406;6.214;2023-08-06T13:13:26;3.50;;;1.60;;
62338;SDS011;48368;53.406;6.214;2023-08-06T13:15:52;4.00;;;1.80;;
62338;SDS011;48368;53.406;6.214;2023-08-06T13:18:18;3.33;;;1.73;;
62338;SDS011;48368;53.406;6.214;2023-08-06T13:20:43;2.53;;;1.52;;
62338;SDS011;48368;53.406;6.214;2023-08-06T13:23:20;3.70;;;1.77;;
62338;SDS011;48368;53.406;6.214;2023-08-06T13:25:46;2.28;;;1.38;;
62338;SDS011;48368;53.406;6.214;2023-08-06T13:28:12;3.03;;;1.75;;
62338;SDS011;48368;53.406;6.214;2023-08-06T13:30:39;2.55;;;1.58;;
62338;SDS011;48368;53.406;6.214;2023-08-06T13:33:07;3.55;;;1.40;;
62338;SDS011;48368;53.406;6.214;2023-08-06T13:35:33;2.72;;;1.50;;
62338;SDS011;48368;53.406;6.214;2023-08-06T13:38:06;3.50;;;1.90;;
62338;SDS011;48368;53.406;6.214;2023-08-06T13:40:35;2.42;;;1.50;;
62338;SDS011;48368;53.406;6.214;2023-08-06T13:43:01;4.07;;;1.67;;
62338;SDS011;48368;53.406;6.214;2023-08-06T13:45:26;3.50;;;1.40;;
62338;SDS011;48368;53.406;6.214;2023-08-06T13:47:52;2.63;;;1.77;;
62338;SDS011;48368;53.406;6.214;2023-08-06T13:50:17;3.40;;;1.67;;
62338;SDS011;48368;53.406;6.214;2023-08-06T13:52:52;3.25;;;1.58;;
62338;SDS011;48368;53.406;6.214;2023-08-06T13:55:19;3.70;;;1.50;;
62338;SDS011;48368;53.406;6.214;2023-08-06T13:57:44;3.05;;;1.45;;
62338;SDS011;48368;53.406;6.214;2023-08-06T14:00:10;3.20;;;1.65;;
62338;SDS011;48368;53.406;6.214;2023-08-06T14:02:36;3.85;;;1.70;;
62338;SDS011;48368;53.406;6.214;2023-08-06T14:05:04;4.35;;;1.52;;
62338;SDS011;48368;53.406;6.214;2023-08-06T14:07:30;5.00;;;1.80;;
62338;SDS011;48368;53.406;6.214;2023-08-06T14:10:02;2.50;;;1.85;;
62338;SDS011;48368;53.406;6.214;2023-08-06T14:13:00;2.38;;;1.52;;
62338;SDS011;48368;53.406;6.214;2023-08-06T14:15:25;3.10;;;1.70;;
62338;SDS011;48368;53.406;6.214;2023-08-06T14:17:51;3.63;;;1.75;;
62338;SDS011;48368;53.406;6.214;2023-08-06T14:20:23;3.35;;;2.08;;
62338;SDS011;48368;53.406;6.214;2023-08-06T14:26:38;2.95;;;1.50;;
62338;SDS011;48368;53.406;6.214;2023-08-06T14:29:13;3.33;;;1.73;;
62338;SDS011;48368;53.406;6.214;2023-08-06T14:31:41;3.67;;;2.08;;
62338;SDS011;48368;53.406;6.214;2023-08-06T14:34:10;3.83;;;1.75;;
62338;SDS011;48368;53.406;6.214;2023-08-06T14:36:35;3.92;;;1.63;;
62338;SDS011;48368;53.406;6.214;2023-08-06T14:39:01;3.05;;;1.65;;
62338;SDS011;48368;53.406;6.214;2023-08-06T14:41:27;3.45;;;1.88;;
62338;SDS011;48368;53.406;6.214;2023-08-06T14:43:55;3.33;;;1.75;;
62338;SDS011;48368;53.406;6.214;2023-08-06T14:46:21;3.03;;;1.50;;
62338;SDS011;48368;53.406;6.214;2023-08-06T14:48:47;4.78;;;1.90;;
62338;SDS011;48368;53.406;6.214;2023-08-06T14:51:12;2.88;;;2.00;;
62338;SDS011;48368;53.406;6.214;2023-08-06T14:53:41;3.45;;;1.88;;
62338;SDS011;48368;53.406;6.214;2023-08-06T14:56:08;3.85;;;1.67;;
62338;SDS011;48368;53.406;6.214;2023-08-06T14:58:34;3.25;;;1.60;;